createdAt,value
2019-03-02T00:00:26.925Z,0
2019-03-02T00:01:09.667Z,0
2019-03-02T00:01:48.676Z,0
2019-03-02T00:02:28.686Z,0
2019-03-02T00:03:09.299Z,0
2019-03-02T00:03:49.867Z,0
2019-03-02T00:04:30.409Z,0
2019-03-02T00:05:10.974Z,0
2019-03-02T00:05:51.540Z,0
2019-03-02T00:06:32.710Z,0
2019-03-02T00:07:12.790Z,0
2019-03-02T00:07:53.318Z,0
2019-03-02T00:08:33.886Z,0
2019-03-02T00:09:14.443Z,0
2019-03-02T00:09:55.023Z,0
2019-03-02T00:10:35.586Z,0
2019-03-02T00:11:17.789Z,0
2019-03-02T00:11:57.489Z,0
2019-03-02T00:12:37.264Z,0
2019-03-02T00:13:17.826Z,0
2019-03-02T00:13:58.420Z,0
2019-03-02T00:14:38.977Z,0
2019-03-02T00:15:19.550Z,0
2019-03-02T00:16:00.853Z,0
2019-03-02T00:16:43.264Z,0
2019-03-02T00:17:21.316Z,0
2019-03-02T00:18:01.883Z,0
2019-03-02T00:18:42.468Z,0
2019-03-02T00:19:23.030Z,0
2019-03-02T00:20:03.587Z,0
2019-03-02T00:20:44.170Z,0
2019-03-02T00:21:27.545Z,0
2019-03-02T00:22:06.735Z,0
2019-03-02T00:22:45.902Z,0
2019-03-02T00:23:26.498Z,0
2019-03-02T00:24:07.068Z,0
2019-03-02T00:24:47.618Z,0
2019-03-02T00:25:30.640Z,0
2019-03-02T00:26:10.159Z,0
2019-03-02T00:26:49.329Z,0
2019-03-02T00:27:29.899Z,0
2019-03-02T00:28:10.483Z,0
2019-03-02T00:28:51.053Z,0
2019-03-02T00:29:31.608Z,0
2019-03-02T00:30:12.200Z,0
2019-03-02T00:30:54.748Z,0
2019-03-02T00:31:34.096Z,0
2019-03-02T00:32:13.907Z,0
2019-03-02T00:32:54.497Z,0
2019-03-02T00:33:35.063Z,0
2019-03-02T00:34:15.643Z,0
2019-03-02T00:34:56.204Z,0
2019-03-02T00:35:39.693Z,0
2019-03-02T00:36:19.390Z,0
2019-03-02T00:36:58.555Z,0
2019-03-02T00:37:38.544Z,0
2019-03-02T00:38:19.106Z,0
2019-03-02T00:39:01.549Z,0
2019-03-02T00:39:40.266Z,0
2019-03-02T00:40:20.846Z,0
2019-03-02T00:41:03.695Z,0
2019-03-02T00:41:43.001Z,0
2019-03-02T00:42:22.613Z,0
2019-03-02T00:43:03.187Z,0
2019-03-02T00:43:43.804Z,0
2019-03-02T00:44:24.375Z,0
2019-03-02T00:45:04.953Z,0
2019-03-02T00:45:45.844Z,0
2019-03-02T00:46:26.103Z,0
2019-03-02T00:47:06.672Z,0
2019-03-02T00:47:47.253Z,0
2019-03-02T00:48:27.836Z,0
2019-03-02T00:49:08.412Z,0
2019-03-02T00:49:48.992Z,0
2019-03-02T00:50:29.547Z,0
2019-03-02T00:51:11.164Z,0
2019-03-02T00:51:50.697Z,0
2019-03-02T00:52:31.252Z,0
2019-03-02T00:53:11.806Z,0
2019-03-02T00:53:52.398Z,0
2019-03-02T00:54:32.967Z,0
2019-03-02T00:55:13.563Z,0
2019-03-02T00:55:54.137Z,0
2019-03-02T00:56:34.724Z,0
2019-03-02T00:57:18.594Z,0
2019-03-02T00:57:55.845Z,0
2019-03-02T00:58:36.410Z,0
2019-03-02T00:59:16.978Z,0
2019-03-02T00:59:57.564Z,0
2019-03-02T01:00:38.131Z,0
2019-03-02T01:01:18.716Z,0
2019-03-02T01:02:00.671Z,0
2019-03-02T01:02:40.474Z,0
2019-03-02T01:03:20.455Z,0
2019-03-02T01:04:01.035Z,0
2019-03-02T01:04:41.629Z,0
2019-03-02T01:05:22.201Z,0
2019-03-02T01:06:02.778Z,0
2019-03-02T01:06:44.943Z,0
2019-03-02T01:07:24.549Z,0
2019-03-02T01:08:04.526Z,0
2019-03-02T01:08:45.064Z,0
2019-03-02T01:09:25.648Z,0
2019-03-02T01:10:06.222Z,0
2019-03-02T01:10:46.815Z,0
2019-03-02T01:11:29.423Z,0
2019-03-02T01:12:09.099Z,0
2019-03-02T01:12:48.561Z,0
2019-03-02T01:13:29.157Z,0
2019-03-02T01:14:09.714Z,0
2019-03-02T01:14:50.302Z,0
2019-03-02T01:15:30.886Z,0
2019-03-02T01:16:11.451Z,0
2019-03-02T01:16:55.100Z,0
2019-03-02T01:17:32.567Z,0
2019-03-02T01:18:13.126Z,0
2019-03-02T01:18:53.712Z,0
2019-03-02T01:19:34.279Z,0
2019-03-02T01:20:14.873Z,0
2019-03-02T01:20:56.226Z,0
2019-03-02T01:21:37.436Z,0
2019-03-02T01:22:17.427Z,0
2019-03-02T01:22:57.992Z,0
2019-03-02T01:23:38.570Z,0
2019-03-02T01:24:19.180Z,0
2019-03-02T01:24:59.748Z,0
2019-03-02T01:25:40.310Z,0
2019-03-02T01:26:23.803Z,0
2019-03-02T01:27:01.452Z,0
2019-03-02T01:27:42.029Z,0
2019-03-02T01:28:22.601Z,0
2019-03-02T01:29:03.147Z,0
2019-03-02T01:29:43.715Z,0
2019-03-02T01:30:26.590Z,0
2019-03-02T01:31:05.077Z,0
2019-03-02T01:31:45.435Z,0
2019-03-02T01:32:25.982Z,0
2019-03-02T01:33:06.558Z,0
2019-03-02T01:33:47.123Z,0
2019-03-02T01:34:27.694Z,0
2019-03-02T01:35:08.256Z,0
2019-03-02T01:35:48.956Z,0
2019-03-02T01:36:32.204Z,0
2019-03-02T01:37:10.133Z,0
2019-03-02T01:37:50.700Z,0
2019-03-02T01:38:31.288Z,0
2019-03-02T01:39:11.840Z,0
2019-03-02T01:39:52.408Z,0
2019-03-02T01:40:32.963Z,0
2019-03-02T01:41:13.942Z,0
2019-03-02T01:41:54.790Z,0
2019-03-02T01:42:34.689Z,0
2019-03-02T01:43:15.281Z,0
2019-03-02T01:43:55.884Z,0
2019-03-02T01:44:36.467Z,0
2019-03-02T01:45:17.027Z,0
2019-03-02T01:45:59.699Z,0
2019-03-02T01:46:40.838Z,0
2019-03-02T01:47:18.748Z,0
2019-03-02T01:47:59.326Z,0
2019-03-02T01:48:39.898Z,0
2019-03-02T01:49:20.475Z,0
2019-03-02T01:50:01.046Z,0
2019-03-02T01:50:43.752Z,0
2019-03-02T01:51:23.065Z,0
2019-03-02T01:52:02.778Z,0
2019-03-02T01:52:43.349Z,0
2019-03-02T01:53:23.902Z,0
2019-03-02T01:54:04.473Z,0
2019-03-02T01:54:45.037Z,0
2019-03-02T01:55:27.721Z,0
2019-03-02T01:56:07.021Z,0
2019-03-02T01:56:46.757Z,0
2019-03-02T01:57:27.309Z,0
2019-03-02T01:58:07.915Z,0
2019-03-02T01:58:48.535Z,0
2019-03-02T01:59:29.108Z,0
2019-03-02T02:00:10.421Z,0
2019-03-02T02:00:50.229Z,0
2019-03-02T02:01:30.833Z,0
2019-03-02T02:02:11.402Z,0
2019-03-02T02:02:52.438Z,0
2019-03-02T02:03:33.029Z,0
2019-03-02T02:04:13.607Z,0
2019-03-02T02:04:54.482Z,0
2019-03-02T02:05:34.749Z,0
2019-03-02T02:06:15.326Z,0
2019-03-02T02:06:55.941Z,0
2019-03-02T02:07:36.501Z,0
2019-03-02T02:08:17.076Z,0
2019-03-02T02:08:57.677Z,0
2019-03-02T02:09:40.509Z,0
2019-03-02T02:10:18.851Z,0
2019-03-02T02:10:59.423Z,0
2019-03-02T02:11:39.990Z,0
2019-03-02T02:12:20.600Z,0
2019-03-02T02:13:02.692Z,0
2019-03-02T02:13:42.791Z,0
2019-03-02T02:14:22.288Z,0
2019-03-02T02:15:02.883Z,0
2019-03-02T02:15:43.459Z,0
2019-03-02T02:16:24.030Z,0
2019-03-02T02:17:04.666Z,0
2019-03-02T02:17:45.244Z,0
2019-03-02T02:18:27.620Z,0
2019-03-02T02:19:06.407Z,0
2019-03-02T02:19:46.959Z,0
2019-03-02T02:20:27.561Z,0
2019-03-02T02:21:08.148Z,0
2019-03-02T02:21:48.690Z,0
2019-03-02T02:22:29.286Z,0
2019-03-02T02:23:13.168Z,0
2019-03-02T02:23:50.824Z,0
2019-03-02T02:24:31.043Z,0
2019-03-02T02:25:11.614Z,0
2019-03-02T02:25:52.182Z,0
2019-03-02T02:26:32.772Z,0
2019-03-02T02:27:13.344Z,0
2019-03-02T02:27:54.764Z,0
2019-03-02T02:28:34.511Z,0
2019-03-02T02:29:15.105Z,0
2019-03-02T02:29:55.660Z,0
2019-03-02T02:30:36.234Z,0
2019-03-02T02:31:16.834Z,0
2019-03-02T02:31:57.406Z,0
2019-03-02T02:32:37.958Z,0
2019-03-02T02:33:18.533Z,0
2019-03-02T02:33:59.095Z,0
2019-03-02T02:34:39.670Z,0
2019-03-02T02:35:20.220Z,0
2019-03-02T02:36:00.814Z,0
2019-03-02T02:36:41.361Z,0
2019-03-02T02:37:21.906Z,0
2019-03-02T02:38:02.468Z,0
2019-03-02T02:38:43.038Z,0
2019-03-02T02:39:23.611Z,0
2019-03-02T02:40:07.918Z,0
2019-03-02T02:40:44.744Z,0
2019-03-02T02:41:25.326Z,0
2019-03-02T02:42:06.844Z,0
2019-03-02T02:42:46.470Z,0
2019-03-02T02:43:27.027Z,0
2019-03-02T02:44:07.589Z,0
2019-03-02T02:44:48.135Z,0
2019-03-02T02:45:28.696Z,0
2019-03-02T02:46:09.275Z,0
2019-03-02T02:46:49.857Z,0
2019-03-02T02:47:30.425Z,0
2019-03-02T02:48:10.998Z,0
2019-03-02T02:48:51.609Z,0
2019-03-02T02:49:32.170Z,0
2019-03-02T02:50:12.712Z,0
2019-03-02T02:50:53.297Z,0
2019-03-02T02:51:33.853Z,0
2019-03-02T02:52:14.431Z,0
2019-03-02T02:52:55.019Z,0
2019-03-02T02:53:40.071Z,0
2019-03-02T02:54:22.329Z,0
2019-03-02T02:54:57.356Z,0
2019-03-02T02:55:40.755Z,0
2019-03-02T02:56:19.333Z,0
2019-03-02T02:57:00.186Z,0
2019-03-02T02:57:39.734Z,0
2019-03-02T02:58:19.579Z,0
2019-03-02T02:59:01.582Z,0
2019-03-02T02:59:40.676Z,0
2019-03-02T03:00:21.230Z,0
2019-03-02T03:01:01.796Z,0
2019-03-02T03:01:42.359Z,0
2019-03-02T03:02:22.909Z,0
2019-03-02T03:03:03.477Z,0
2019-03-02T03:03:44.081Z,0
2019-03-02T03:04:24.636Z,0
2019-03-02T03:05:05.221Z,0
2019-03-02T03:05:49.144Z,0
2019-03-02T03:06:28.397Z,0
2019-03-02T03:07:11.839Z,0
2019-03-02T03:07:53.033Z,0
2019-03-02T03:08:32.167Z,0
2019-03-02T03:09:09.605Z,0
2019-03-02T03:09:50.663Z,0
2019-03-02T03:10:30.150Z,0
2019-03-02T03:11:10.338Z,0
2019-03-02T03:11:50.897Z,0
2019-03-02T03:12:31.455Z,0
2019-03-02T03:13:12.011Z,0
2019-03-02T03:13:52.614Z,0
2019-03-02T03:14:33.199Z,0
2019-03-02T03:15:13.779Z,0
2019-03-02T03:15:54.371Z,0
2019-03-02T03:16:34.969Z,0
2019-03-02T03:17:15.577Z,0
2019-03-02T03:17:56.174Z,0
2019-03-02T03:18:36.786Z,0
2019-03-02T03:19:17.363Z,0
2019-03-02T03:19:57.914Z,0
2019-03-02T03:20:38.462Z,0
2019-03-02T03:21:26.765Z,0
2019-03-02T03:22:02.110Z,0
2019-03-02T03:22:40.812Z,0
2019-03-02T03:23:24.745Z,0
2019-03-02T03:24:03.721Z,0
2019-03-02T03:24:42.040Z,0
2019-03-02T03:25:22.457Z,0
2019-03-02T03:26:03.089Z,0
2019-03-02T03:26:43.649Z,0
2019-03-02T03:27:24.246Z,0
2019-03-02T03:28:04.840Z,0
2019-03-02T03:28:45.401Z,0
2019-03-02T03:29:25.997Z,0
2019-03-02T03:30:06.559Z,0
2019-03-02T03:30:47.131Z,0
2019-03-02T03:31:30.955Z,0
2019-03-02T03:32:11.858Z,0
2019-03-02T03:32:55.664Z,0
2019-03-02T03:33:41.253Z,0
2019-03-02T03:34:10.037Z,0
2019-03-02T03:34:50.675Z,0
2019-03-02T03:35:31.258Z,0
2019-03-02T03:36:11.820Z,0
2019-03-02T03:36:52.385Z,0
2019-03-02T03:37:33.019Z,0
2019-03-02T03:38:13.576Z,0
2019-03-02T03:38:54.209Z,0
2019-03-02T03:39:34.771Z,0
2019-03-02T03:40:19.960Z,0
2019-03-02T03:41:00.060Z,0
2019-03-02T03:41:42.618Z,0
2019-03-02T03:42:22.169Z,0
2019-03-02T03:43:01.941Z,0
2019-03-02T03:43:42.391Z,0
2019-03-02T03:44:25.590Z,0
2019-03-02T03:44:59.687Z,0
2019-03-02T03:45:43.131Z,0
2019-03-02T03:46:22.253Z,0
2019-03-02T03:47:01.997Z,0
2019-03-02T03:47:41.678Z,0
2019-03-02T03:48:22.272Z,0
2019-03-02T03:49:02.883Z,0
2019-03-02T03:49:43.457Z,0
2019-03-02T03:50:24.062Z,0
2019-03-02T03:51:04.611Z,0
2019-03-02T03:51:45.197Z,0
2019-03-02T03:52:25.741Z,0
2019-03-02T03:53:06.330Z,0
2019-03-02T03:53:46.910Z,0
2019-03-02T03:54:27.473Z,0
2019-03-02T03:55:08.042Z,0
2019-03-02T03:55:48.620Z,0
2019-03-02T03:56:29.209Z,0
2019-03-02T03:57:09.780Z,0
2019-03-02T03:57:55.260Z,0
2019-03-02T03:58:34.935Z,0
2019-03-02T03:59:14.140Z,0
2019-03-02T03:59:53.340Z,0
2019-03-02T04:00:33.994Z,0
2019-03-02T04:01:17.643Z,0
2019-03-02T04:01:56.708Z,0
2019-03-02T04:02:35.305Z,0
2019-03-02T04:03:15.087Z,0
2019-03-02T04:03:55.530Z,0
2019-03-02T04:04:36.102Z,0
2019-03-02T04:05:16.707Z,0
2019-03-02T04:05:57.301Z,0
2019-03-02T04:06:37.920Z,0
2019-03-02T04:07:18.513Z,0
2019-03-02T04:07:59.081Z,0
2019-03-02T04:08:39.652Z,0
2019-03-02T04:09:20.226Z,0
2019-03-02T04:10:00.784Z,0
2019-03-02T04:10:41.369Z,0
2019-03-02T04:11:21.935Z,0
2019-03-02T04:12:02.521Z,0
2019-03-02T04:12:43.101Z,0
2019-03-02T04:13:23.672Z,0
2019-03-02T04:14:04.260Z,0
2019-03-02T04:14:44.833Z,0
2019-03-02T04:15:25.389Z,0
2019-03-02T04:16:06.014Z,0
2019-03-02T04:16:46.573Z,0
2019-03-02T04:17:27.163Z,0
2019-03-02T04:18:07.805Z,0
2019-03-02T04:18:54.311Z,0
2019-03-02T04:19:29.387Z,0
2019-03-02T04:20:12.415Z,0
2019-03-02T04:20:50.877Z,0
2019-03-02T04:21:30.746Z,0
2019-03-02T04:22:11.303Z,0
2019-03-02T04:22:51.859Z,0
2019-03-02T04:23:32.437Z,0
2019-03-02T04:24:13.033Z,0
2019-03-02T04:24:53.596Z,0
2019-03-02T04:25:34.164Z,0
2019-03-02T04:26:14.729Z,0
2019-03-02T04:26:55.326Z,0
2019-03-02T04:27:35.907Z,0
2019-03-02T04:28:16.494Z,0
2019-03-02T04:28:57.117Z,0
2019-03-02T04:29:37.688Z,0
2019-03-02T04:30:18.248Z,0
2019-03-02T04:30:58.835Z,0
2019-03-02T04:31:43.838Z,0
2019-03-02T04:32:26.998Z,0
2019-03-02T04:33:01.634Z,0
2019-03-02T04:33:43.161Z,0
2019-03-02T04:34:22.915Z,0
2019-03-02T04:35:02.481Z,0
2019-03-02T04:35:43.047Z,0
2019-03-02T04:36:23.621Z,0
2019-03-02T04:37:04.218Z,0
2019-03-02T04:37:44.800Z,0
2019-03-02T04:38:25.378Z,0
2019-03-02T04:39:09.462Z,0
2019-03-02T04:39:49.904Z,0
2019-03-02T04:40:27.641Z,0
2019-03-02T04:41:07.677Z,0
2019-03-02T04:41:48.273Z,0
2019-03-02T04:42:28.883Z,0
2019-03-02T04:43:09.475Z,0
2019-03-02T04:43:50.606Z,0
2019-03-02T04:44:30.887Z,0
2019-03-02T04:45:11.236Z,0
2019-03-02T04:45:51.824Z,0
2019-03-02T04:46:32.406Z,0
2019-03-02T04:47:13.008Z,0
2019-03-02T04:47:54.551Z,0
2019-03-02T04:48:35.704Z,0
2019-03-02T04:49:15.542Z,0
2019-03-02T04:49:55.313Z,0
2019-03-02T04:50:35.870Z,0
2019-03-02T04:51:16.449Z,0
2019-03-02T04:51:57.017Z,0
2019-03-02T04:52:37.625Z,0
2019-03-02T04:53:21.460Z,0
2019-03-02T04:54:01.733Z,0
2019-03-02T04:54:39.303Z,0
2019-03-02T04:55:19.879Z,0
2019-03-02T04:56:00.456Z,0
2019-03-02T04:56:41.010Z,0
2019-03-02T04:57:21.590Z,0
2019-03-02T04:58:02.148Z,0
2019-03-02T04:58:43.583Z,0
2019-03-02T04:59:23.316Z,0
2019-03-02T05:00:03.922Z,0
2019-03-02T05:00:44.513Z,0
2019-03-02T05:01:25.070Z,0
2019-03-02T05:02:05.649Z,0
2019-03-02T05:02:46.236Z,0
2019-03-02T05:03:26.847Z,0
2019-03-02T05:04:07.425Z,0
2019-03-02T05:04:47.999Z,0
2019-03-02T05:05:28.590Z,0
2019-03-02T05:06:09.204Z,0
2019-03-02T05:06:50.519Z,0
2019-03-02T05:07:30.975Z,0
2019-03-02T05:08:10.949Z,0
2019-03-02T05:08:51.548Z,0
2019-03-02T05:09:32.104Z,0
2019-03-02T05:10:12.690Z,0
2019-03-02T05:10:53.260Z,0
2019-03-02T05:11:35.423Z,0
2019-03-02T05:12:14.745Z,0
2019-03-02T05:12:55.019Z,0
2019-03-02T05:13:35.602Z,0
2019-03-02T05:14:16.184Z,0
2019-03-02T05:14:56.764Z,0
2019-03-02T05:15:37.353Z,0
2019-03-02T05:16:17.963Z,0
2019-03-02T05:16:58.544Z,0
2019-03-02T05:17:39.676Z,0
2019-03-02T05:18:19.735Z,0
2019-03-02T05:19:00.337Z,0
2019-03-02T05:19:40.861Z,0
2019-03-02T05:20:21.444Z,0
2019-03-02T05:21:02.012Z,0
2019-03-02T05:21:43.443Z,0
2019-03-02T05:22:23.141Z,0
2019-03-02T05:23:03.691Z,0
2019-03-02T05:23:44.292Z,0
2019-03-02T05:24:24.890Z,0
2019-03-02T05:25:05.487Z,0
2019-03-02T05:25:46.070Z,0
2019-03-02T05:26:26.652Z,0
2019-03-02T05:27:07.211Z,0
2019-03-02T05:27:47.799Z,0
2019-03-02T05:28:28.409Z,0
2019-03-02T05:29:09.003Z,0
2019-03-02T05:29:50.667Z,0
2019-03-02T05:30:30.451Z,0
2019-03-02T05:31:10.732Z,4
2019-03-02T05:31:51.297Z,4
2019-03-02T05:32:31.873Z,4
2019-03-02T05:33:12.447Z,4
2019-03-02T05:33:53.054Z,4
2019-03-02T05:34:36.621Z,0
2019-03-02T05:35:15.373Z,0
2019-03-02T05:35:54.813Z,0
2019-03-02T05:36:35.397Z,0
2019-03-02T05:37:15.971Z,4
2019-03-02T05:37:56.530Z,4
2019-03-02T05:38:37.120Z,4
2019-03-02T05:39:18.067Z,4
2019-03-02T05:39:58.266Z,4
2019-03-02T05:40:38.823Z,4
2019-03-02T05:41:19.431Z,4
2019-03-02T05:41:59.979Z,8
2019-03-02T05:42:40.564Z,8
2019-03-02T05:43:23.526Z,4
2019-03-02T05:44:01.756Z,8
2019-03-02T05:44:42.318Z,8
2019-03-02T05:45:23.741Z,8
2019-03-02T05:46:03.428Z,8
2019-03-02T05:46:43.982Z,8
2019-03-02T05:47:24.568Z,12
2019-03-02T05:48:06.192Z,12
2019-03-02T05:48:45.713Z,12
2019-03-02T05:49:26.267Z,8
2019-03-02T05:50:06.841Z,12
2019-03-02T05:50:47.438Z,16
2019-03-02T05:51:28.039Z,16
2019-03-02T05:52:08.595Z,16
2019-03-02T05:52:50.691Z,16
2019-03-02T05:53:30.218Z,20
2019-03-02T05:54:10.343Z,20
2019-03-02T05:54:50.894Z,24
2019-03-02T05:55:31.453Z,20
2019-03-02T05:56:12.095Z,24
2019-03-02T05:56:52.658Z,24
2019-03-02T05:57:33.261Z,28
2019-03-02T05:58:15.786Z,28
2019-03-02T05:58:54.419Z,32
2019-03-02T05:59:35.024Z,32
2019-03-02T06:00:15.586Z,32
2019-03-02T06:00:56.146Z,32
2019-03-02T06:01:40.115Z,32
2019-03-02T06:02:18.175Z,36
2019-03-02T06:02:57.940Z,40
2019-03-02T06:03:38.516Z,44
2019-03-02T06:04:21.995Z,48
2019-03-02T06:04:59.730Z,48
2019-03-02T06:05:40.281Z,56
2019-03-02T06:06:20.852Z,60
2019-03-02T06:07:01.416Z,60
2019-03-02T06:07:41.984Z,64
2019-03-02T06:08:22.557Z,72
2019-03-02T06:09:03.143Z,72
2019-03-02T06:09:46.811Z,72
2019-03-02T06:10:25.262Z,72
2019-03-02T06:11:06.646Z,76
2019-03-02T06:11:45.483Z,76
2019-03-02T06:12:26.032Z,80
2019-03-02T06:13:06.599Z,84
2019-03-02T06:13:47.188Z,88
2019-03-02T06:14:30.359Z,92
2019-03-02T06:15:08.657Z,96
2019-03-02T06:15:48.959Z,96
2019-03-02T06:16:29.551Z,96
2019-03-02T06:17:10.103Z,96
2019-03-02T06:17:50.699Z,100
2019-03-02T06:18:31.267Z,100
2019-03-02T06:19:11.828Z,104
2019-03-02T06:19:55.710Z,104
2019-03-02T06:20:35.552Z,108
2019-03-02T06:21:13.509Z,112
2019-03-02T06:21:54.111Z,116
2019-03-02T06:22:34.679Z,116
2019-03-02T06:23:15.251Z,116
2019-03-02T06:23:55.813Z,116
2019-03-02T06:24:37.598Z,124
2019-03-02T06:25:20.347Z,128
2019-03-02T06:25:58.778Z,132
2019-03-02T06:26:38.073Z,132
2019-03-02T06:27:18.621Z,132
2019-03-02T06:27:59.224Z,136
2019-03-02T06:28:39.821Z,136
2019-03-02T06:29:20.387Z,136
2019-03-02T06:30:00.939Z,136
2019-03-02T06:30:44.026Z,136
2019-03-02T06:31:22.138Z,136
2019-03-02T06:32:02.697Z,132
2019-03-02T06:32:43.249Z,136
2019-03-02T06:33:23.846Z,140
2019-03-02T06:34:04.425Z,136
2019-03-02T06:34:45.010Z,140
2019-03-02T06:35:28.971Z,140
2019-03-02T06:36:08.632Z,144
2019-03-02T06:36:46.780Z,148
2019-03-02T06:37:27.410Z,148
2019-03-02T06:38:08.025Z,148
2019-03-02T06:38:48.606Z,156
2019-03-02T06:39:29.164Z,156
2019-03-02T06:40:09.799Z,156
2019-03-02T06:40:50.375Z,164
2019-03-02T06:41:33.143Z,172
2019-03-02T06:42:11.524Z,184
2019-03-02T06:42:53.922Z,188
2019-03-02T06:43:32.714Z,192
2019-03-02T06:44:13.270Z,196
2019-03-02T06:44:53.862Z,200
2019-03-02T06:45:34.448Z,200
2019-03-02T06:46:15.860Z,196
2019-03-02T06:46:58.222Z,200
2019-03-02T06:47:36.260Z,204
2019-03-02T06:48:16.850Z,208
2019-03-02T06:48:57.429Z,212
2019-03-02T06:49:38.024Z,220
2019-03-02T06:50:18.658Z,228
2019-03-02T06:50:59.218Z,236
2019-03-02T06:51:39.827Z,240
2019-03-02T06:52:25.116Z,244
2019-03-02T06:53:01.376Z,252
2019-03-02T06:53:41.554Z,260
2019-03-02T06:54:22.134Z,264
2019-03-02T06:55:02.740Z,272
2019-03-02T06:55:43.298Z,276
2019-03-02T06:56:23.864Z,284
2019-03-02T06:57:04.452Z,288
2019-03-02T06:57:46.061Z,288
2019-03-02T06:58:26.610Z,292
2019-03-02T06:59:06.208Z,292
2019-03-02T06:59:46.792Z,296
2019-03-02T07:00:27.405Z,300
2019-03-02T07:01:08.056Z,308
2019-03-02T07:01:48.904Z,312
2019-03-02T07:02:31.607Z,312
2019-03-02T07:03:16.629Z,316
2019-03-02T07:04:00.160Z,328
2019-03-02T07:04:42.479Z,336
2019-03-02T07:05:24.280Z,344
2019-03-02T07:06:08.499Z,344
2019-03-02T07:06:49.287Z,344
2019-03-02T07:07:30.969Z,356
2019-03-02T07:08:12.478Z,364
2019-03-02T07:08:55.725Z,364
2019-03-02T07:09:41.724Z,368
2019-03-02T07:10:23.482Z,372
2019-03-02T07:11:03.926Z,372
2019-03-02T07:11:46.287Z,376
2019-03-02T07:12:30.236Z,388
2019-03-02T07:13:13.651Z,396
2019-03-02T07:13:56.313Z,408
2019-03-02T07:14:36.669Z,416
2019-03-02T07:15:18.279Z,428
2019-03-02T07:16:00.024Z,428
2019-03-02T07:16:41.923Z,424
2019-03-02T07:17:22.981Z,428
2019-03-02T07:18:06.084Z,428
2019-03-02T07:18:47.900Z,428
2019-03-02T07:19:29.617Z,432
2019-03-02T07:20:13.646Z,440
2019-03-02T07:20:55.458Z,444
2019-03-02T07:21:41.440Z,452
2019-03-02T07:22:22.739Z,456
2019-03-02T07:23:06.319Z,468
2019-03-02T07:23:49.033Z,480
2019-03-02T07:24:30.570Z,496
2019-03-02T07:25:14.645Z,512
2019-03-02T07:25:55.881Z,520
2019-03-02T07:26:39.118Z,528
2019-03-02T07:27:26.314Z,536
2019-03-02T07:28:07.470Z,540
2019-03-02T07:28:49.073Z,548
2019-03-02T07:29:31.988Z,576
2019-03-02T07:30:16.181Z,604
2019-03-02T07:30:59.333Z,640
2019-03-02T07:31:42.629Z,668
2019-03-02T07:32:27.160Z,688
2019-03-02T07:33:10.909Z,704
2019-03-02T07:33:53.576Z,728
2019-03-02T07:34:35.652Z,736
2019-03-02T07:35:19.294Z,740
2019-03-02T07:36:02.016Z,736
2019-03-02T07:36:46.486Z,744
2019-03-02T07:37:30.494Z,760
2019-03-02T07:38:16.838Z,780
2019-03-02T07:39:00.670Z,804
2019-03-02T07:39:46.184Z,832
2019-03-02T07:40:29.999Z,852
2019-03-02T07:41:13.445Z,856
2019-03-02T07:41:57.856Z,864
2019-03-02T07:42:43.191Z,864
2019-03-02T07:43:24.941Z,868
2019-03-02T07:44:08.043Z,880
2019-03-02T07:44:54.862Z,900
2019-03-02T07:45:34.719Z,916
2019-03-02T07:46:17.478Z,928
2019-03-02T07:46:59.211Z,924
2019-03-02T07:47:42.120Z,916
2019-03-02T07:48:25.276Z,908
2019-03-02T07:49:09.105Z,896
2019-03-02T07:49:53.484Z,880
2019-03-02T07:50:38.141Z,860
2019-03-02T07:51:21.448Z,844
2019-03-02T07:52:03.232Z,836
2019-03-02T07:52:49.649Z,852
2019-03-02T07:53:30.287Z,872
2019-03-02T07:54:11.580Z,888
2019-03-02T07:54:58.244Z,892
2019-03-02T07:55:35.710Z,896
2019-03-02T07:56:19.920Z,904
2019-03-02T07:57:04.939Z,912
2019-03-02T07:57:45.909Z,912
2019-03-02T07:58:29.151Z,912
2019-03-02T07:59:13.495Z,912
2019-03-02T07:59:56.172Z,916
2019-03-02T08:00:40.854Z,924
2019-03-02T08:01:23.257Z,932
2019-03-02T08:02:07.325Z,936
2019-03-02T08:02:48.178Z,928
2019-03-02T08:03:31.466Z,912
2019-03-02T08:04:16.719Z,916
2019-03-02T08:05:00.246Z,916
2019-03-02T08:05:42.049Z,920
2019-03-02T08:06:25.771Z,932
2019-03-02T08:07:07.438Z,932
2019-03-02T08:07:50.116Z,908
2019-03-02T08:08:34.888Z,892
2019-03-02T08:09:16.792Z,884
2019-03-02T08:10:01.990Z,892
2019-03-02T08:10:43.727Z,912
2019-03-02T08:11:26.219Z,940
2019-03-02T08:12:07.913Z,976
2019-03-02T08:12:51.241Z,1000
2019-03-02T08:13:36.419Z,1008
2019-03-02T08:14:16.468Z,1008
2019-03-02T08:15:01.771Z,1008
2019-03-02T08:15:44.036Z,1020
2019-03-02T08:16:28.513Z,1032
2019-03-02T08:17:13.400Z,1040
2019-03-02T08:17:55.329Z,1028
2019-03-02T08:18:38.072Z,1032
2019-03-02T08:19:20.738Z,1036
2019-03-02T08:20:05.513Z,1032
2019-03-02T08:20:53.816Z,1028
2019-03-02T08:21:35.759Z,1020
2019-03-02T08:22:17.675Z,1008
2019-03-02T08:23:00.035Z,1000
2019-03-02T08:23:44.187Z,1004
2019-03-02T08:24:29.652Z,1016
2019-03-02T08:25:14.054Z,1020
2019-03-02T08:25:55.763Z,1020
2019-03-02T08:26:40.202Z,1032
2019-03-02T08:27:24.487Z,1044
2019-03-02T08:28:09.919Z,1056
2019-03-02T08:28:51.165Z,1064
2019-03-02T08:29:32.941Z,1072
2019-03-02T08:30:16.096Z,1080
2019-03-02T08:30:57.770Z,1088
2019-03-02T08:31:41.874Z,1100
2019-03-02T08:32:26.336Z,1124
2019-03-02T08:33:08.646Z,1144
2019-03-02T08:33:53.800Z,1160
2019-03-02T08:34:35.521Z,1160
2019-03-02T08:35:17.404Z,1156
2019-03-02T08:35:59.339Z,1152
2019-03-02T08:36:40.868Z,1148
2019-03-02T08:37:29.534Z,1148
2019-03-02T08:38:08.005Z,1148
2019-03-02T08:38:50.785Z,1160
2019-03-02T08:39:32.306Z,1172
2019-03-02T08:40:19.171Z,1176
2019-03-02T08:41:01.449Z,1180
2019-03-02T08:41:42.247Z,1196
2019-03-02T08:42:24.618Z,1200
2019-03-02T08:43:08.051Z,1200
2019-03-02T08:43:49.773Z,1204
2019-03-02T08:44:31.375Z,1208
2019-03-02T08:45:13.454Z,1224
2019-03-02T08:45:56.924Z,1240
2019-03-02T08:46:39.438Z,1260
2019-03-02T08:47:24.135Z,1284
2019-03-02T08:48:05.928Z,1284
2019-03-02T08:48:49.243Z,1292
2019-03-02T08:49:32.585Z,1296
2019-03-02T08:50:17.498Z,1284
2019-03-02T08:50:56.973Z,1272
2019-03-02T08:51:39.231Z,1264
2019-03-02T08:52:20.966Z,1264
2019-03-02T08:53:03.629Z,1260
2019-03-02T08:53:46.059Z,1244
2019-03-02T08:54:27.669Z,1232
2019-03-02T08:55:11.926Z,1240
2019-03-02T08:55:52.012Z,1260
2019-03-02T08:56:34.261Z,1260
2019-03-02T08:57:19.560Z,1260
2019-03-02T08:57:58.898Z,1256
2019-03-02T08:58:44.030Z,1260
2019-03-02T08:59:26.233Z,1280
2019-03-02T09:00:09.522Z,1300
2019-03-02T09:00:51.684Z,1308
2019-03-02T09:01:32.930Z,1320
2019-03-02T09:02:14.448Z,1336
2019-03-02T09:02:58.779Z,1348
2019-03-02T09:03:38.184Z,1372
2019-03-02T09:04:19.290Z,1412
2019-03-02T09:05:01.340Z,1448
2019-03-02T09:05:45.669Z,1464
2019-03-02T09:06:24.082Z,1488
2019-03-02T09:07:07.719Z,1504
2019-03-02T09:07:47.324Z,1520
2019-03-02T09:08:28.738Z,1528
2019-03-02T09:09:10.134Z,1532
2019-03-02T09:09:51.390Z,1524
2019-03-02T09:10:32.871Z,1520
2019-03-02T09:11:14.185Z,1492
2019-03-02T09:11:56.469Z,1480
2019-03-02T09:12:38.569Z,1476
2019-03-02T09:13:19.960Z,1468
2019-03-02T09:14:01.199Z,1456
2019-03-02T09:14:45.028Z,1440
2019-03-02T09:15:25.988Z,1432
2019-03-02T09:16:06.671Z,1428
2019-03-02T09:16:48.372Z,1428
2019-03-02T09:17:29.686Z,1428
2019-03-02T09:18:11.056Z,1432
2019-03-02T09:18:52.424Z,1436
2019-03-02T09:19:33.902Z,1440
2019-03-02T09:20:15.443Z,1456
2019-03-02T09:20:56.860Z,1488
2019-03-02T09:21:39.399Z,1536
2019-03-02T09:22:20.765Z,1580
2019-03-02T09:23:01.674Z,1616
2019-03-02T09:23:42.798Z,1656
2019-03-02T09:24:24.147Z,1700
2019-03-02T09:25:05.646Z,1760
2019-03-02T09:25:46.975Z,1820
2019-03-02T09:26:28.246Z,1872
2019-03-02T09:27:10.552Z,1900
2019-03-02T09:27:52.047Z,1888
2019-03-02T09:28:33.210Z,1856
2019-03-02T09:29:14.627Z,1832
2019-03-02T09:29:58.964Z,1812
2019-03-02T09:30:37.533Z,1792
2019-03-02T09:31:26.003Z,1768
2019-03-02T09:32:01.292Z,1740
2019-03-02T09:32:46.952Z,1712
2019-03-02T09:33:28.622Z,1700
2019-03-02T09:34:06.311Z,1696
2019-03-02T09:34:49.472Z,1700
2019-03-02T09:35:29.482Z,1704
2019-03-02T09:36:10.660Z,1712
2019-03-02T09:36:52.761Z,1700
2019-03-02T09:37:34.737Z,1668
2019-03-02T09:38:20.749Z,1620
2019-03-02T09:38:58.756Z,1576
2019-03-02T09:39:39.777Z,1564
2019-03-02T09:40:23.990Z,1540
2019-03-02T09:41:03.678Z,1536
2019-03-02T09:41:45.118Z,1548
2019-03-02T09:42:26.414Z,1556
2019-03-02T09:43:07.959Z,1548
2019-03-02T09:43:49.941Z,1540
2019-03-02T09:44:32.710Z,1536
2019-03-02T09:45:13.496Z,1536
2019-03-02T09:45:55.522Z,1548
2019-03-02T09:46:37.024Z,1544
2019-03-02T09:47:18.657Z,1544
2019-03-02T09:47:59.919Z,1552
2019-03-02T09:48:41.330Z,1540